Time;durP1;ratioP1;P1;durP2;ratioP2;P2;SDS_P1;SDS_P2;PMS_P1;PMS_P2;Temp;Humidity;BMP_temperature;BMP_pressure;BME280_temperature;BME280_humidity;BME280_pressure;Samples;Min_cycle;Max_cycle;Signal;HPM_P1;HPM_P2
2022/10/15 00:02:11;;;;;;;15.97;12.53;;;13.20;99.90;;;;;;5096414;28;20249;-75
2022/10/15 00:04:39;;;;;;;14.73;13.10;;;13.20;99.90;;;;;;5096404;28;20201;-75
2022/10/15 00:07:05;;;;;;;14.27;12.43;;;13.20;99.90;;;;;;5096263;28;20196;-75
2022/10/15 00:09:32;;;;;;;15.07;12.43;;;13.20;99.90;;;;;;5096119;28;20224;-75
2022/10/15 00:11:59;;;;;;;13.73;12.00;;;13.20;99.90;;;;;;5096080;28;20207;-75
2022/10/15 00:14:25;;;;;;;16.93;12.90;;;13.20;99.90;;;;;;5095761;28;20224;-75
2022/10/15 00:16:52;;;;;;;15.70;12.63;;;13.20;99.90;;;;;;5096217;28;20254;-75
2022/10/15 00:19:19;;;;;;;14.97;12.50;;;13.20;99.90;;;;;;5095990;28;20200;-75
2022/10/15 00:21:47;;;;;;;15.27;12.17;;;13.20;99.90;;;;;;5095996;28;20257;-75
2022/10/15 00:24:13;;;;;;;14.90;11.77;;;13.20;99.90;;;;;;5095898;28;20249;-75
2022/10/15 00:26:40;;;;;;;14.43;12.03;;;13.20;99.90;;;;;;5095765;28;20241;-75
2022/10/15 00:29:07;;;;;;;14.97;12.23;;;13.20;99.90;;;;;;5095674;28;20196;-75
2022/10/15 00:31:33;;;;;;;14.97;12.50;;;13.20;99.90;;;;;;5095757;28;20228;-75
2022/10/15 00:34:01;;;;;;;15.40;11.27;;;13.20;99.90;;;;;;5095800;28;20204;-75
2022/10/15 00:36:30;;;;;;;13.93;11.37;;;13.20;99.90;;;;;;5095478;28;20279;-75
2022/10/15 00:38:58;;;;;;;13.93;11.27;;;13.20;99.90;;;;;;5095855;28;20603;-76
2022/10/15 00:41:28;;;;;;;13.97;10.50;;;13.20;99.90;;;;;;5095380;28;20250;-75
2022/10/15 00:43:56;;;;;;;15.20;10.53;;;13.20;99.90;;;;;;5095381;28;20586;-75
2022/10/15 00:46:26;;;;;;;12.37;10.83;;;13.20;99.90;;;;;;5095562;28;20230;-75
2022/10/15 00:48:56;;;;;;;11.03;9.90;;;13.20;99.90;;;;;;5095571;28;20250;-75
2022/10/15 00:51:27;;;;;;;12.70;10.43;;;13.20;99.90;;;;;;5095306;28;20281;-75
2022/10/15 00:53:54;;;;;;;13.03;9.83;;;13.20;99.90;;;;;;5095202;28;20204;-75
2022/10/15 00:56:25;;;;;;;13.53;9.97;;;13.20;99.90;;;;;;5095423;28;20887;-75
2022/10/15 00:58:53;;;;;;;11.43;9.83;;;13.20;99.90;;;;;;5095320;28;20196;-75
2022/10/15 01:01:20;;;;;;;10.93;9.53;;;13.20;99.90;;;;;;5095147;28;20303;-75
2022/10/15 01:03:47;;;;;;;12.33;10.00;;;13.20;99.90;;;;;;5095101;28;20204;-75
2022/10/15 01:06:14;;;;;;;10.00;8.50;;;13.20;99.90;;;;;;5095059;28;20196;-74
2022/10/15 01:08:41;;;;;;;10.17;9.17;;;13.20;99.90;;;;;;5094971;28;20254;-75
2022/10/15 01:11:24;;;;;;;9.20;8.30;;;13.20;99.90;;;;;;5094999;28;20228;-75
2022/10/15 01:13:59;;;;;;;8.20;7.07;;;13.20;99.90;;;;;;5095081;28;20278;-74
2022/10/15 01:16:35;;;;;;;8.13;7.30;;;13.20;99.90;;;;;;5094919;28;20261;-74
2022/10/15 01:19:07;;;;;;;8.70;6.87;;;13.20;99.90;;;;;;5094679;28;20204;-74
2022/10/15 01:21:38;;;;;;;8.50;7.17;;;13.30;99.90;;;;;;5094910;28;20204;-73
2022/10/15 01:24:49;;;;;;;6.90;6.30;;;13.30;99.90;;;;;;5094788;28;20192;-73
2022/10/15 01:27:35;;;;;;;6.03;5.43;;;13.30;99.90;;;;;;5094512;28;20603;-73
2022/10/15 01:30:22;;;;;;;5.63;4.80;;;13.30;99.90;;;;;;5094690;28;20718;-73
2022/10/15 01:33:07;;;;;;;5.90;5.30;;;13.30;99.90;;;;;;5095013;28;20754;-73
2022/10/15 01:35:43;;;;;;;5.83;4.13;;;13.30;99.90;;;;;;5094328;28;20602;-73
2022/10/15 01:38:20;;;;;;;4.97;4.43;;;13.30;99.90;;;;;;5094546;28;20200;-73
2022/10/15 01:40:54;;;;;;;4.60;4.10;;;13.30;99.90;;;;;;5094479;28;20249;-73
2022/10/15 01:43:26;;;;;;;3.53;3.23;;;13.30;99.90;;;;;;5094518;28;20246;-73
2022/10/15 01:45:57;;;;;;;4.07;3.67;;;13.30;99.90;;;;;;5094698;28;20303;-73
2022/10/15 01:48:26;;;;;;;5.13;3.17;;;13.30;99.90;;;;;;5093837;28;20189;-73
2022/10/15 01:50:58;;;;;;;4.37;3.40;;;13.30;99.90;;;;;;5094226;28;20231;-73
2022/10/15 01:53:27;;;;;;;4.10;2.57;;;13.30;99.90;;;;;;5094256;28;20200;-73
2022/10/15 01:55:57;;;;;;;3.40;2.77;;;13.30;99.90;;;;;;5094041;28;20246;-73
2022/10/15 01:58:24;;;;;;;3.33;2.40;;;13.30;99.90;;;;;;5094038;28;20196;-75
2022/10/15 02:00:54;;;;;;;2.80;2.50;;;13.40;99.90;;;;;;5093857;28;20208;-73
2022/10/15 02:03:21;;;;;;;2.97;2.37;;;13.30;99.90;;;;;;5093897;28;20651;-73
2022/10/15 02:05:52;;;;;;;3.10;2.60;;;13.30;99.90;;;;;;5093797;28;20652;-73
2022/10/15 02:08:26;;;;;;;3.27;2.50;;;13.30;99.90;;;;;;5093763;28;20207;-73
2022/10/15 02:10:58;;;;;;;3.27;2.30;;;13.30;99.90;;;;;;5093640;28;20683;-73
2022/10/15 02:13:32;;;;;;;2.37;2.17;;;13.30;99.90;;;;;;5093696;28;20675;-73
2022/10/15 02:16:06;;;;;;;2.63;2.30;;;13.30;99.90;;;;;;5093860;28;20200;-73
2022/10/15 02:18:41;;;;;;;5.27;2.17;;;13.30;99.90;;;;;;5093743;28;20229;-73
2022/10/15 02:21:12;;;;;;;5.73;2.20;;;13.30;99.90;;;;;;5093696;28;20195;-73
2022/10/15 02:23:44;;;;;;;2.93;2.30;;;13.30;99.90;;;;;;5093531;28;20210;-73
2022/10/15 02:26:11;;;;;;;3.63;2.23;;;13.30;99.90;;;;;;5093670;28;20212;-73
2022/10/15 02:28:43;;;;;;;2.40;2.20;;;13.20;99.90;;;;;;5093462;28;20200;-73
2022/10/15 02:31:13;;;;;;;2.40;2.13;;;13.30;99.90;;;;;;5093488;28;20285;-73
2022/10/15 02:33:40;;;;;;;3.97;2.20;;;13.30;99.90;;;;;;5093511;28;20192;-73
2022/10/15 02:36:09;;;;;;;3.37;2.10;;;13.20;99.90;;;;;;5093539;28;20642;-73
2022/10/15 02:38:37;;;;;;;2.77;2.00;;;13.20;99.90;;;;;;5093475;28;20199;-73
2022/10/15 02:41:05;;;;;;;2.27;2.07;;;13.30;99.90;;;;;;5093465;28;20199;-73
2022/10/15 02:43:31;;;;;;;2.00;1.90;;;13.20;99.90;;;;;;5093347;28;20200;-73
2022/10/15 02:45:58;;;;;;;2.20;2.00;;;13.30;99.90;;;;;;5093332;28;20246;-73
2022/10/15 02:48:26;;;;;;;2.80;2.17;;;13.30;99.90;;;;;;5093264;28;20200;-73
2022/10/15 02:50:53;;;;;;;3.17;2.17;;;13.30;99.90;;;;;;5093223;28;20617;-73
2022/10/15 02:53:19;;;;;;;2.40;2.20;;;13.30;99.90;;;;;;5093387;28;20204;-73
2022/10/15 02:55:46;;;;;;;2.97;2.07;;;13.30;99.90;;;;;;5093359;28;20200;-74
2022/10/15 02:58:13;;;;;;;3.50;2.10;;;13.30;99.90;;;;;;5093427;28;20196;-73
2022/10/15 03:00:40;;;;;;;3.20;2.30;;;13.30;99.90;;;;;;5092023;28;20257;-73
2022/10/15 03:03:06;;;;;;;2.57;2.10;;;13.30;99.90;;;;;;5093016;28;20197;-73
2022/10/15 03:05:35;;;;;;;4.60;2.30;;;13.30;99.90;;;;;;5092894;28;20717;-73
2022/10/15 03:08:02;;;;;;;7.00;2.20;;;13.30;99.90;;;;;;5093076;28;20200;-73
2022/10/15 03:10:28;;;;;;;2.20;2.00;;;13.30;99.90;;;;;;5092992;28;20269;-73
2022/10/15 03:12:55;;;;;;;4.63;2.93;;;13.40;99.90;;;;;;5092950;28;20196;-72
2022/10/15 03:15:22;;;;;;;2.60;2.40;;;13.30;99.90;;;;;;5092755;28;20282;-72
2022/10/15 03:17:48;;;;;;;3.43;2.90;;;13.30;99.90;;;;;;5092820;28;20201;-72
2022/10/15 03:20:15;;;;;;;6.33;2.80;;;13.40;99.90;;;;;;5093061;28;20200;-72
2022/10/15 03:22:43;;;;;;;4.63;2.40;;;13.30;99.90;;;;;;5092776;28;20712;-72
2022/10/15 03:25:10;;;;;;;3.97;2.87;;;13.30;99.90;;;;;;5092835;28;20204;-72
2022/10/15 03:27:36;;;;;;;2.27;2.07;;;13.30;99.90;;;;;;5093033;28;20203;-73
2022/10/15 03:30:04;;;;;;;3.73;2.57;;;13.30;99.90;;;;;;5092824;28;20376;-73
2022/10/15 03:32:31;;;;;;;3.27;2.70;;;13.40;99.90;;;;;;5092615;28;20228;-73
2022/10/15 03:34:57;;;;;;;3.43;2.07;;;13.40;99.90;;;;;;5092908;28;20200;-73
2022/10/15 03:37:24;;;;;;;2.37;2.17;;;13.40;99.90;;;;;;5092793;28;20200;-73
2022/10/15 03:39:52;;;;;;;2.27;2.07;;;13.40;99.90;;;;;;5092732;28;20258;-72
2022/10/15 03:42:19;;;;;;;5.67;3.23;;;13.40;99.90;;;;;;5092632;28;20245;-72
2022/10/15 03:44:46;;;;;;;2.57;2.03;;;13.40;99.90;;;;;;5092589;28;20250;-72
2022/10/15 03:47:12;;;;;;;3.40;3.10;;;13.40;99.90;;;;;;5092800;28;20232;-72
2022/10/15 03:49:39;;;;;;;2.43;2.23;;;13.40;99.90;;;;;;5092710;28;20192;-72
2022/10/15 03:52:05;;;;;;;3.90;2.37;;;13.40;99.90;;;;;;5092656;28;20641;-72
2022/10/15 03:54:32;;;;;;;2.43;2.23;;;13.40;99.90;;;;;;5092610;28;20203;-72
2022/10/15 03:57:00;;;;;;;2.80;1.97;;;13.40;99.90;;;;;;5092533;28;20196;-73
2022/10/15 03:59:27;;;;;;;2.70;2.30;;;13.40;99.90;;;;;;5092439;28;20242;-72
2022/10/15 04:01:54;;;;;;;3.00;2.70;;;13.50;99.90;;;;;;5092643;28;20204;-72
2022/10/15 04:04:20;;;;;;;2.27;2.07;;;13.50;99.90;;;;;;5092651;28;20208;-73
2022/10/15 04:06:47;;;;;;;5.20;4.20;;;13.50;99.90;;;;;;5092526;28;20192;-72
2022/10/15 04:09:14;;;;;;;2.87;2.67;;;13.50;99.90;;;;;;5092291;28;20228;-72
2022/10/15 04:11:41;;;;;;;5.43;2.70;;;13.50;99.90;;;;;;5093860;28;20277;-72
2022/10/15 04:14:09;;;;;;;1.90;1.80;;;13.50;99.90;;;;;;5095873;28;20232;-72
2022/10/15 04:16:36;;;;;;;3.80;2.30;;;13.50;99.90;;;;;;5096224;28;20208;-72
2022/10/15 04:19:02;;;;;;;3.10;1.83;;;13.50;99.90;;;;;;5096112;28;20204;-72
2022/10/15 04:21:29;;;;;;;2.90;1.70;;;13.50;99.90;;;;;;5095988;28;20269;-72
2022/10/15 04:23:55;;;;;;;2.20;2.00;;;13.50;99.90;;;;;;5095951;28;20717;-72
2022/10/15 04:26:22;;;;;;;3.67;3.37;;;13.50;99.90;;;;;;5095688;28;20238;-72
2022/10/15 04:28:49;;;;;;;3.70;2.80;;;13.50;99.90;;;;;;5095678;28;20192;-72
2022/10/15 04:31:17;;;;;;;2.77;2.57;;;13.60;99.90;;;;;;5095722;28;20223;-72
2022/10/15 04:33:44;;;;;;;3.03;2.80;;;13.60;99.90;;;;;;5095739;28;20192;-71
2022/10/15 04:36:13;;;;;;;3.03;2.73;;;13.60;99.90;;;;;;5095700;28;20453;-72
2022/10/15 04:38:40;;;;;;;2.77;2.40;;;13.60;99.90;;;;;;5095478;28;20705;-72
2022/10/15 04:41:08;;;;;;;3.10;2.80;;;13.60;99.90;;;;;;5095438;28;20234;-72
2022/10/15 04:43:35;;;;;;;2.63;2.43;;;13.60;99.90;;;;;;5095574;28;20602;-72
2022/10/15 04:46:05;;;;;;;3.60;2.70;;;13.60;99.90;;;;;;5095294;28;20705;-72
2022/10/15 04:48:35;;;;;;;3.20;2.33;;;13.60;99.90;;;;;;5095417;28;20203;-72
2022/10/15 04:51:06;;;;;;;2.40;2.20;;;13.60;99.90;;;;;;5095212;28;20679;-72
2022/10/15 04:53:33;;;;;;;2.17;1.97;;;13.70;99.90;;;;;;5095144;28;20200;-72
2022/10/15 04:56:02;;;;;;;2.77;2.17;;;13.70;99.90;;;;;;5095193;28;20253;-72
2022/10/15 04:58:30;;;;;;;3.17;1.83;;;13.70;99.90;;;;;;5095350;28;20279;-72
2022/10/15 05:01:00;;;;;;;2.07;1.97;;;13.70;99.90;;;;;;5094998;28;20287;-72
2022/10/15 05:03:26;;;;;;;4.03;1.93;;;13.70;99.90;;;;;;5095121;28;20192;-72
2022/10/15 05:05:59;;;;;;;2.23;2.03;;;13.70;99.90;;;;;;5095007;28;20246;-72
2022/10/15 05:08:25;;;;;;;1.93;1.83;;;13.70;99.90;;;;;;5094915;28;20277;-73
2022/10/15 05:10:52;;;;;;;3.97;2.20;;;13.70;99.90;;;;;;5094872;28;20230;-72
2022/10/15 05:13:19;;;;;;;3.77;1.90;;;13.80;99.90;;;;;;5095027;28;20200;-72
2022/10/15 05:15:45;;;;;;;3.10;2.10;;;13.80;99.90;;;;;;5094899;28;20569;-72
2022/10/15 05:18:12;;;;;;;2.33;1.70;;;13.90;99.90;;;;;;5094732;28;20652;-72
2022/10/15 05:20:38;;;;;;;1.80;1.70;;;13.90;99.90;;;;;;5094641;28;20253;-72
2022/10/15 05:23:06;;;;;;;2.63;1.60;;;13.90;99.90;;;;;;5093904;28;20200;-72
2022/10/15 05:25:33;;;;;;;2.43;1.80;;;13.90;99.90;;;;;;5094750;28;20199;-72
2022/10/15 05:28:00;;;;;;;2.33;1.70;;;14.00;99.90;;;;;;5094695;28;20200;-72
2022/10/15 05:30:26;;;;;;;2.20;2.00;;;14.00;99.90;;;;;;5094587;28;20241;-72
2022/10/15 05:32:53;;;;;;;2.47;1.90;;;14.00;99.90;;;;;;5094424;28;20284;-72
2022/10/15 05:35:20;;;;;;;5.20;2.27;;;14.00;99.90;;;;;;5094379;28;20204;-72
2022/10/15 05:37:48;;;;;;;2.63;1.90;;;14.00;99.90;;;;;;5094573;28;20197;-72
2022/10/15 05:40:16;;;;;;;5.20;2.00;;;14.00;99.90;;;;;;5094239;28;20200;-72
2022/10/15 05:42:43;;;;;;;3.03;2.50;;;14.10;99.90;;;;;;5094341;28;20205;-72
2022/10/15 05:45:11;;;;;;;2.40;2.20;;;14.10;99.90;;;;;;5094411;28;20200;-72
2022/10/15 05:47:37;;;;;;;2.60;2.40;;;14.10;99.90;;;;;;5094105;28;20222;-72
2022/10/15 05:50:04;;;;;;;3.93;2.60;;;14.10;99.90;;;;;;5094355;28;20283;-72
2022/10/15 05:52:31;;;;;;;3.50;2.30;;;14.10;99.90;;;;;;5094167;28;20227;-72
2022/10/15 05:54:58;;;;;;;3.70;2.40;;;14.20;99.90;;;;;;5094253;28;20253;-72
2022/10/15 05:57:26;;;;;;;3.80;2.37;;;14.20;99.90;;;;;;5094134;28;20204;-72
2022/10/15 05:59:52;;;;;;;4.93;4.37;;;14.30;99.90;;;;;;5093957;28;20249;-72
2022/10/15 06:02:19;;;;;;;2.40;2.20;;;14.20;99.90;;;;;;5093921;28;20254;-72
2022/10/15 06:04:47;;;;;;;3.30;3.00;;;14.30;99.90;;;;;;5093858;28;20196;-73
2022/10/15 06:07:14;;;;;;;2.13;1.93;;;14.30;99.90;;;;;;5093853;28;20241;-72
2022/10/15 06:09:41;;;;;;;2.67;2.47;;;14.30;99.90;;;;;;5093761;28;20227;-72
2022/10/15 06:12:08;;;;;;;6.27;5.67;;;14.40;99.90;;;;;;5093699;28;20274;-72
2022/10/15 06:14:36;;;;;;;7.37;5.90;;;14.40;99.90;;;;;;5093494;28;20711;-72
2022/10/15 06:17:02;;;;;;;2.70;2.50;;;14.40;99.90;;;;;;5093453;28;20201;-72
2022/10/15 06:19:29;;;;;;;5.13;4.70;;;14.40;99.90;;;;;;5093690;28;20196;-72
2022/10/15 06:21:56;;;;;;;5.07;4.67;;;14.40;99.90;;;;;;5093591;28;20204;-72
2022/10/15 06:24:22;;;;;;;3.93;3.30;;;14.40;99.90;;;;;;5093335;28;20196;-72
2022/10/15 06:26:49;;;;;;;3.10;2.53;;;14.40;99.90;;;;;;5093441;28;20196;-72
2022/10/15 06:29:15;;;;;;;4.90;4.10;;;14.50;99.90;;;;;;5093211;28;20546;-72
2022/10/15 06:31:43;;;;;;;2.97;2.67;;;14.50;99.90;;;;;;5093112;28;20691;-72
2022/10/15 06:34:10;;;;;;;4.53;4.13;;;14.50;99.90;;;;;;5093208;28;20199;-72
2022/10/15 06:36:37;;;;;;;2.33;2.13;;;14.40;99.90;;;;;;5093308;28;20196;-72
2022/10/15 06:39:04;;;;;;;2.57;1.73;;;14.50;99.90;;;;;;5093230;28;20231;-71
2022/10/15 06:41:31;;;;;;;2.57;2.37;;;14.50;99.90;;;;;;5093236;28;20200;-71
2022/10/15 06:43:57;;;;;;;2.13;1.43;;;14.50;99.90;;;;;;5093023;28;20197;-71
2022/10/15 06:46:24;;;;;;;2.70;1.50;;;14.50;99.90;;;;;;5093181;28;20533;-72
2022/10/15 06:48:54;;;;;;;1.13;1.03;;;14.50;99.90;;;;;;5093185;28;20197;-71
2022/10/15 06:51:21;;;;;;;1.87;1.40;;;14.60;99.90;;;;;;5093021;28;20230;-71
2022/10/15 06:53:48;;;;;;;4.23;1.20;;;14.60;99.90;;;;;;5092966;28;20204;-70
2022/10/15 06:56:14;;;;;;;2.07;1.47;;;14.60;99.90;;;;;;5092914;28;20227;-71
2022/10/15 06:58:42;;;;;;;2.47;1.67;;;14.60;99.90;;;;;;5092775;28;20265;-71
2022/10/15 07:01:09;;;;;;;2.20;1.40;;;14.70;99.90;;;;;;5093005;28;20283;-71
2022/10/15 07:03:37;;;;;;;1.63;1.17;;;14.70;99.90;;;;;;5092895;28;20321;-71
2022/10/15 07:06:07;;;;;;;1.30;0.87;;;14.70;99.90;;;;;;5092909;28;20230;-71
2022/10/15 07:08:34;;;;;;;1.00;1.00;;;14.70;99.90;;;;;;5092766;28;20201;-71
2022/10/15 07:11:02;;;;;;;1.10;1.00;;;14.70;99.90;;;;;;5092826;28;20199;-71
2022/10/15 07:13:29;;;;;;;3.20;1.10;;;14.70;99.90;;;;;;5092624;28;20324;-72
2022/10/15 07:15:56;;;;;;;1.40;1.20;;;14.70;99.90;;;;;;5092741;28;20196;-71
2022/10/15 07:18:23;;;;;;;2.60;1.30;;;14.80;99.90;;;;;;5092774;28;20192;-71
2022/10/15 07:20:49;;;;;;;2.60;1.30;;;14.80;99.90;;;;;;5092727;28;20204;-71
2022/10/15 07:23:17;;;;;;;2.30;1.40;;;14.80;99.90;;;;;;5092678;28;20204;-71
2022/10/15 07:25:44;;;;;;;1.67;1.57;;;14.80;99.90;;;;;;5092607;28;20201;-71
2022/10/15 07:28:11;;;;;;;2.23;1.60;;;14.80;99.90;;;;;;5092776;28;20204;-71
2022/10/15 07:30:37;;;;;;;5.90;1.93;;;14.80;99.90;;;;;;5092768;28;20610;-71
2022/10/15 07:33:04;;;;;;;2.33;1.90;;;14.80;99.90;;;;;;5092431;28;20564;-71
2022/10/15 07:35:30;;;;;;;2.80;1.90;;;14.80;99.90;;;;;;5092430;28;20245;-71
2022/10/15 07:38:00;;;;;;;4.37;2.17;;;14.90;99.90;;;;;;5092518;28;20262;-71
2022/10/15 07:40:28;;;;;;;3.87;1.90;;;14.80;99.90;;;;;;5092330;28;20292;-71
2022/10/15 07:42:55;;;;;;;2.80;2.00;;;14.80;99.90;;;;;;5092576;28;20201;-71
2022/10/15 07:45:23;;;;;;;3.10;2.10;;;14.90;99.90;;;;;;5092613;28;20222;-71
2022/10/15 07:47:49;;;;;;;3.57;2.43;;;14.90;99.90;;;;;;5096390;28;20614;-71
2022/10/15 07:50:16;;;;;;;3.70;2.53;;;14.90;99.90;;;;;;5096291;28;20263;-71
2022/10/15 07:52:43;;;;;;;2.77;2.30;;;14.90;99.90;;;;;;5096029;28;20216;-71
2022/10/15 07:55:10;;;;;;;2.60;2.40;;;14.90;99.90;;;;;;5096455;28;20200;-71
2022/10/15 07:57:38;;;;;;;2.50;2.30;;;14.90;99.90;;;;;;5096080;28;20609;-72
2022/10/15 08:00:06;;;;;;;3.17;2.50;;;14.90;99.90;;;;;;5096123;28;20585;-72
2022/10/15 08:02:33;;;;;;;2.40;2.20;;;14.90;99.90;;;;;;5096085;28;20703;-71
2022/10/15 08:05:00;;;;;;;2.07;1.93;;;14.90;99.90;;;;;;5095990;28;20509;-72
2022/10/15 08:07:26;;;;;;;2.40;2.20;;;14.90;99.90;;;;;;5096373;28;20201;-71
2022/10/15 08:09:53;;;;;;;1.90;1.80;;;14.90;99.90;;;;;;5096341;28;20615;-72
2022/10/15 08:12:20;;;;;;;2.40;2.10;;;14.90;99.90;;;;;;5095780;28;20617;-72
2022/10/15 08:14:48;;;;;;;2.57;2.13;;;14.90;99.90;;;;;;5095771;28;20254;-72
2022/10/15 08:17:14;;;;;;;3.50;2.13;;;14.90;99.90;;;;;;5095712;28;20196;-72
2022/10/15 08:19:41;;;;;;;2.80;2.10;;;14.90;99.90;;;;;;5095535;28;20710;-71
2022/10/15 08:22:08;;;;;;;3.27;2.30;;;14.90;99.90;;;;;;5095592;28;20230;-71
2022/10/15 08:24:34;;;;;;;2.50;1.90;;;14.90;99.90;;;;;;5095770;28;20269;-71
2022/10/15 08:27:01;;;;;;;3.13;1.83;;;14.90;99.90;;;;;;5095697;28;20571;-71
2022/10/15 08:29:28;;;;;;;2.40;2.20;;;15.00;99.90;;;;;;5095627;28;20273;-71
2022/10/15 08:31:56;;;;;;;2.20;1.80;;;15.10;99.90;;;;;;5095431;28;20601;-72
2022/10/15 08:34:22;;;;;;;2.13;1.70;;;15.20;99.90;;;;;;5095462;28;20281;-71
2022/10/15 08:36:49;;;;;;;1.70;1.60;;;15.20;99.90;;;;;;5095564;28;20254;-72
2022/10/15 08:39:16;;;;;;;2.20;1.50;;;15.30;99.90;;;;;;5095513;28;20234;-72
2022/10/15 08:41:46;;;;;;;2.10;1.90;;;15.50;99.90;;;;;;5095430;28;20226;-72
2022/10/15 08:44:20;;;;;;;1.63;1.53;;;15.60;99.90;;;;;;5095195;28;20204;-72
2022/10/15 08:46:50;;;;;;;2.70;1.70;;;15.70;99.90;;;;;;5095264;28;20196;-72
2022/10/15 08:49:29;;;;;;;1.47;1.37;;;15.70;99.90;;;;;;5095383;28;20196;-72
2022/10/15 08:52:05;;;;;;;2.10;1.60;;;15.70;99.90;;;;;;5095251;28;20268;-72
2022/10/15 08:54:35;;;;;;;2.00;1.80;;;15.70;99.90;;;;;;5095286;28;20717;-72
2022/10/15 08:57:16;;;;;;;3.77;2.00;;;15.70;99.90;;;;;;5094925;28;20654;-72
2022/10/15 08:59:50;;;;;;;3.40;1.63;;;15.60;99.90;;;;;;5095190;28;20192;-73
2022/10/15 09:02:21;;;;;;;2.93;2.23;;;15.60;99.90;;;;;;5095032;28;20261;-73
2022/10/15 09:04:55;;;;;;;3.63;2.30;;;15.60;99.90;;;;;;5094972;28;20562;-73
2022/10/15 09:07:31;;;;;;;2.90;2.00;;;15.60;99.90;;;;;;5094902;28;20246;-73
2022/10/15 09:10:06;;;;;;;2.03;1.87;;;15.50;99.90;;;;;;5094654;28;20202;-73
2022/10/15 09:12:45;;;;;;;2.47;1.90;;;15.50;99.90;;;;;;5095158;28;20219;-73
2022/10/15 09:15:15;;;;;;;3.47;1.93;;;15.40;99.90;;;;;;5094777;28;20231;-73
2022/10/15 09:17:44;;;;;;;3.77;2.40;;;15.30;99.90;;;;;;5094659;28;20201;-73
2022/10/15 09:20:17;;;;;;;4.03;2.10;;;15.30;99.90;;;;;;5094589;28;20605;-73
2022/10/15 09:22:49;;;;;;;2.40;2.10;;;15.30;99.90;;;;;;5094651;28;20239;-73
2022/10/15 09:25:17;;;;;;;2.60;2.40;;;15.40;99.90;;;;;;5094650;28;20200;-73
2022/10/15 09:27:47;;;;;;;2.63;2.43;;;15.40;99.90;;;;;;5094423;28;20200;-73
2022/10/15 09:30:25;;;;;;;3.43;2.80;;;15.40;99.90;;;;;;5094234;28;20246;-73
2022/10/15 09:32:55;;;;;;;2.47;2.27;;;15.40;99.90;;;;;;5094148;28;20223;-73
2022/10/15 09:35:28;;;;;;;3.70;2.40;;;15.40;99.90;;;;;;5094464;28;20200;-73
2022/10/15 09:38:11;;;;;;;3.30;2.23;;;15.60;99.90;;;;;;5094142;28;20652;-73
2022/10/15 09:40:49;;;;;;;2.53;2.30;;;15.80;99.90;;;;;;5094253;28;20196;-73
2022/10/15 09:43:22;;;;;;;1.90;1.80;;;15.80;99.90;;;;;;5094097;28;20196;-73
2022/10/15 09:45:49;;;;;;;2.30;2.10;;;15.70;99.90;;;;;;5094059;28;20253;-73
2022/10/15 09:48:18;;;;;;;1.60;1.50;;;15.80;99.90;;;;;;5094079;28;20201;-73
2022/10/15 09:50:55;;;;;;;2.30;2.10;;;15.80;99.90;;;;;;5094087;28;20610;-73
2022/10/15 09:53:34;;;;;;;2.70;2.17;;;16.00;99.90;;;;;;5093959;28;20224;-73
2022/10/15 09:56:06;;;;;;;1.40;1.30;;;16.00;99.90;;;;;;5094199;28;20200;-73
2022/10/15 09:58:39;;;;;;;1.93;1.57;;;16.00;99.90;;;;;;5093981;28;20245;-73
2022/10/15 10:01:07;;;;;;;1.63;1.53;;;15.90;99.90;;;;;;5093907;28;20601;-73
2022/10/15 10:03:35;;;;;;;1.60;1.47;;;15.80;99.90;;;;;;5093754;28;20200;-73
2022/10/15 10:06:06;;;;;;;4.63;1.70;;;16.00;99.90;;;;;;5093615;28;20201;-74
2022/10/15 10:08:37;;;;;;;1.70;1.60;;;16.10;99.90;;;;;;5093362;28;20533;-74
2022/10/15 10:11:06;;;;;;;1.77;1.60;;;16.10;99.90;;;;;;5093938;28;20196;-74
2022/10/15 10:13:38;;;;;;;2.10;1.60;;;16.10;99.90;;;;;;5093538;28;20245;-73
2022/10/15 10:16:08;;;;;;;2.60;1.90;;;16.10;99.90;;;;;;5093690;28;20614;-74
2022/10/15 10:18:36;;;;;;;2.50;2.03;;;16.20;99.90;;;;;;5093479;28;20204;-74
2022/10/15 10:21:06;;;;;;;2.90;1.50;;;16.30;99.90;;;;;;5093636;28;20603;-74
2022/10/15 10:23:34;;;;;;;2.40;1.50;;;16.50;99.90;;;;;;5093669;28;20235;-74
2022/10/15 10:26:03;;;;;;;3.60;1.50;;;16.60;99.90;;;;;;5093240;28;20315;-74
2022/10/15 10:28:33;;;;;;;2.65;1.65;;;16.80;99.90;;;;;;5093277;28;20674;-74
2022/10/15 10:31:03;;;;;;;1.92;1.40;;;16.80;99.90;;;;;;5093228;28;20656;-74
2022/10/15 10:33:33;;;;;;;3.13;1.30;;;17.00;99.90;;;;;;5093254;28;20560;-74
2022/10/15 10:36:00;;;;;;;1.95;1.30;;;17.00;99.90;;;;;;5093644;28;20204;-74
2022/10/15 10:38:33;;;;;;;1.45;1.30;;;17.20;99.90;;;;;;5093280;28;20203;-74
2022/10/15 10:41:05;;;;;;;1.30;1.20;;;16.90;99.90;;;;;;5093118;28;20200;-74
2022/10/15 10:43:32;;;;;;;1.25;1.15;;;17.30;99.90;;;;;;5093119;28;20230;-74
2022/10/15 10:46:01;;;;;;;2.45;1.30;;;17.50;99.90;;;;;;5093003;28;20204;-74
2022/10/15 10:48:37;;;;;;;1.77;1.50;;;18.20;99.90;;;;;;5093054;28;20279;-75
2022/10/15 10:51:10;;;;;;;1.30;1.20;;;18.30;99.90;;;;;;5092967;28;20655;-75
2022/10/15 10:53:47;;;;;;;2.17;1.40;;;18.60;99.90;;;;;;5092954;28;20223;-75
2022/10/15 10:56:15;;;;;;;2.55;1.52;;;18.20;99.90;;;;;;5092849;28;20616;-75
2022/10/15 10:58:42;;;;;;;2.67;1.55;;;18.30;99.90;;;;;;5093100;28;20196;-76
2022/10/15 11:01:12;;;;;;;2.22;1.40;;;19.10;99.90;;;;;;5092992;28;20245;-77
2022/10/15 11:03:41;;;;;;;1.52;1.38;;;19.40;99.90;;;;;;5092882;28;20200;-76
2022/10/15 11:06:51;;;;;;;1.33;1.20;;;19.00;99.90;;;;;;5092742;28;20192;-77
2022/10/15 11:09:36;;;;;;;2.53;1.40;;;18.40;99.90;;;;;;5092908;28;20196;-76
2022/10/15 11:12:14;;;;;;;0.82;0.82;;;18.20;99.90;;;;;;5092749;28;20208;-77
2022/10/15 11:14:50;;;;;;;2.22;1.27;;;17.90;99.90;;;;;;5092518;28;20270;-77
2022/10/15 11:17:25;;;;;;;3.78;0.88;;;17.90;99.90;;;;;;5093115;28;20203;-76
2022/10/15 11:19:56;;;;;;;1.27;1.10;;;17.80;99.90;;;;;;5093150;28;20200;-76
2022/10/15 11:22:52;;;;;;;1.58;1.20;;;17.40;99.90;;;;;;5095810;28;20238;-76
2022/10/15 11:25:31;;;;;;;2.30;1.05;;;17.70;99.90;;;;;;5096935;28;20253;-76
2022/10/15 11:28:18;;;;;;;1.23;1.02;;;18.40;99.90;;;;;;5096834;28;20200;-75
2022/10/15 11:30:51;;;;;;;2.05;1.10;;;18.10;99.90;;;;;;5096792;28;20244;-77
2022/10/15 11:33:32;;;;;;;0.98;0.90;;;17.80;99.90;;;;;;5096600;28;20228;-77
2022/10/15 11:36:10;;;;;;;1.33;0.80;;;18.50;99.90;;;;;;5096822;28;20200;-75
2022/10/15 11:38:43;;;;;;;0.95;0.90;;;18.50;99.90;;;;;;5096665;28;20264;-75
2022/10/15 11:41:28;;;;;;;2.33;1.20;;;19.00;99.90;;;;;;5096505;28;20196;-75
2022/10/15 11:44:12;;;;;;;1.23;1.10;;;18.50;99.90;;;;;;5096492;28;20597;-76
2022/10/15 11:46:46;;;;;;;1.20;1.10;;;18.10;99.90;;;;;;5096566;28;20200;-75
2022/10/15 11:49:24;;;;;;;2.15;1.33;;;17.90;99.90;;;;;;5096355;28;20196;-75
2022/10/15 11:52:12;;;;;;;3.03;1.33;;;17.50;99.90;;;;;;5096392;28;20203;-75
2022/10/15 11:54:43;;;;;;;1.42;1.05;;;17.50;99.90;;;;;;5096136;28;20220;-74
2022/10/15 11:57:15;;;;;;;2.22;1.25;;;17.30;99.90;;;;;;5096336;28;20204;-75
2022/10/15 11:59:48;;;;;;;2.33;0.98;;;17.40;99.90;;;;;;5096336;28;20196;-75
2022/10/15 12:02:18;;;;;;;0.95;0.90;;;17.20;99.90;;;;;;5096295;28;20741;-76
2022/10/15 12:04:49;;;;;;;1.30;1.20;;;17.10;99.90;;;;;;5096389;28;20605;-75
2022/10/15 12:07:20;;;;;;;1.80;1.20;;;17.10;99.90;;;;;;5096473;28;20670;-75
2022/10/15 12:09:51;;;;;;;1.45;1.05;;;17.10;99.90;;;;;;5096326;28;20227;-74
2022/10/15 12:12:30;;;;;;;1.17;1.00;;;16.90;99.90;;;;;;5096449;28;20707;-75
2022/10/15 12:15:20;;;;;;;1.00;0.90;;;17.00;99.90;;;;;;5095329;28;20235;-76
2022/10/15 12:17:55;;;;;;;1.20;1.10;;;17.00;99.90;;;;;;5095264;28;20701;-76
2022/10/15 12:20:23;;;;;;;1.10;1.00;;;16.90;99.90;;;;;;5095181;28;20589;-76
2022/10/15 12:22:58;;;;;;;2.55;1.00;;;17.00;99.90;;;;;;5095187;28;20254;-76
2022/10/15 12:25:44;;;;;;;1.58;1.00;;;18.10;99.90;;;;;;5094511;28;20200;-76
2022/10/15 12:28:18;;;;;;;0.80;0.80;;;19.40;99.90;;;;;;5094569;28;20277;-76
2022/10/15 12:30:58;;;;;;;1.17;0.75;;;19.60;99.90;;;;;;5094956;28;20196;-76
2022/10/15 12:33:35;;;;;;;0.70;0.70;;;20.60;99.90;;;;;;5094227;28;20204;-78
2022/10/15 12:36:08;;;;;;;1.60;1.10;;;19.80;99.90;;;;;;5094298;28;20659;-75
2022/10/15 12:38:36;;;;;;;0.90;0.90;;;19.70;99.90;;;;;;5094123;28;20548;-76
2022/10/15 12:41:06;;;;;;;1.42;1.10;;;19.10;99.90;;;;;;5094187;28;20196;-75
2022/10/15 12:43:38;;;;;;;1.98;1.25;;;18.70;99.90;;;;;;5094087;28;20200;-77
2022/10/15 12:46:07;;;;;;;1.88;1.15;;;18.40;99.90;;;;;;5094099;28;20250;-75
2022/10/15 12:48:40;;;;;;;1.77;1.00;;;18.10;99.90;;;;;;5093903;28;20541;-76
2022/10/15 12:51:37;;;;;;;3.80;1.40;;;18.10;99.90;;;;;;5094190;28;20204;-76
2022/10/15 12:54:39;;;;;;;1.85;1.65;;;18.50;99.90;;;;;;5093940;28;20216;-75
2022/10/15 12:57:43;;;;;;;1.88;1.60;;;20.40;99.90;;;;;;5094059;28;20226;-75
2022/10/15 13:00:36;;;;;;;1.30;1.00;;;20.50;99.90;;;;;;5093969;28;20196;-75
2022/10/15 13:03:33;;;;;;;1.00;0.90;;;23.20;99.90;;;;;;5093794;28;20200;-75